Skip Navigation Links Skip Navigation Links

Current Weather

Newark Intl, Newark, N.J.

For information only: do not use for flight planning or navigation.
Latest weather
Observation time Saturday, June 6, 2020 5:51 PM EDT
Local time Saturday, June 6, 2020 6:46 PM EDT
Flight conditions Visual Meteorological Conditions
Winds
Wind direction Northwest (310°)
Wind speed 14 mph
Wind gusting to 21 mph
Visibility 10 mi.
Sky condition
Ceiling 11,000 ft. broken clouds
Cloud layer few clouds 6,000 ft.
Cloud layer few clouds 9,000 ft.
Cloud layer broken clouds 11,000 ft.
Cloud layer broken clouds 30,000 ft.
Temperature 87°F
Dewpoint 59°F
Altimeter 29.69 in.Hg
Derived measurements
Relative humidity 39%
Heat index 87°F
Density altitude 2303 ft.
Sea-level pressure 29.68 in.Hg
Remarks
Automated weather observing station with precipitation discriminator.
METAR KEWR 062151Z 31012G18KT 10SM FEW060 FEW090 BKN110 BKN300 31/15 A2969 RMK AO2 SLP052 T03060150

Settings

Location code

InnerDrive.Weather 4.0.6770.0 Release CLR 4.0.30319.42000
Copyright ©2018 Inner Drive Technology. All rights reserved. Portions Copyright ©1986-2018 David Braverman.

Find weather

Site navigation


Skip Navigation Links

Place info

Page info

PayPal - The safer, easier way to pay online!

Return home.

Copyright ©2020 Inner Drive Technology. Purveyors of fine, hand-crafted computer software. Page printed 2020-06-06T22:46:22 UTC.